createdAt,value
2023-03-16T02:58:58.645Z,6.20
2023-03-16T05:58:25.414Z,5.80
2023-03-16T06:03:27.648Z,5.80
2023-03-16T06:08:29.457Z,5.80
2023-03-16T06:13:31.288Z,5.80
2023-03-16T06:18:36.832Z,5.90
2023-03-16T06:23:38.606Z,5.90
2023-03-16T06:28:41.538Z,5.90
2023-03-16T06:33:43.348Z,5.80
2023-03-16T06:38:45.191Z,5.80
2023-03-16T06:43:48.034Z,5.80
2023-03-16T06:48:49.842Z,5.80
2023-03-16T06:53:51.941Z,5.90
2023-03-16T06:58:54.098Z,5.90
2023-03-16T07:03:55.977Z,5.90
2023-03-16T07:08:57.832Z,6.00
2023-03-16T07:14:00.070Z,6.00
2023-03-16T07:19:02.122Z,6.10
2023-03-16T07:24:04.036Z,6.10
2023-03-16T07:29:06.562Z,6.20
2023-03-16T07:34:14.661Z,6.20
2023-03-16T07:39:21.172Z,6.30
2023-03-16T07:44:23.200Z,6.40
2023-03-16T07:49:25.145Z,6.40
2023-03-16T07:54:27.006Z,6.50
2023-03-16T07:59:28.844Z,6.50
2023-03-16T08:04:31.334Z,6.60
2023-03-16T08:09:35.888Z,6.70
2023-03-16T08:14:37.751Z,6.80
2023-03-16T08:19:39.621Z,7.00
2023-03-16T08:24:42.603Z,7.00
2023-03-16T08:29:45.067Z,7.10
2023-03-16T08:34:47.792Z,7.20
2023-03-16T08:39:51.769Z,7.20
2023-03-16T08:44:55.210Z,7.30
2023-03-16T08:49:57.404Z,7.30
2023-03-16T08:55:03.431Z,7.40
2023-03-16T09:00:13.023Z,7.50
2023-03-16T09:05:15.917Z,7.70
2023-03-16T09:10:19.042Z,7.80
2023-03-16T09:15:21.437Z,7.90
2023-03-16T09:20:26.785Z,8.10
2023-03-16T09:25:32.479Z,8.20
2023-03-16T09:30:34.738Z,8.40
2023-03-16T09:35:38.385Z,8.50
2023-03-16T09:40:41.515Z,8.60
2023-03-16T09:45:59.783Z,8.70
2023-03-16T09:51:05.302Z,9.00
2023-03-16T09:56:11.044Z,9.20
2023-03-16T10:01:31.561Z,9.40
2023-03-16T10:06:33.914Z,9.60
2023-03-16T10:11:38.623Z,9.80
2023-03-16T10:16:48.072Z,10.10
2023-03-16T10:21:50.966Z,10.30
2023-03-16T10:27:00.462Z,10.50
2023-03-16T10:32:13.105Z,10.70
2023-03-16T10:37:15.061Z,10.80
2023-03-16T10:42:20.071Z,11.00
2023-03-16T10:47:30.325Z,11.30
2023-03-16T10:52:42.541Z,11.50
2023-03-16T10:57:50.606Z,11.70
2023-03-16T11:02:54.354Z,12.10
2023-03-16T11:08:12.122Z,12.40
2023-03-16T11:13:16.019Z,12.60
2023-03-16T11:18:39.187Z,12.80
2023-03-16T11:23:46.436Z,13.00
2023-03-16T11:28:54.991Z,13.00
2023-03-16T11:33:57.706Z,13.10
2023-03-16T11:39:28.161Z,13.20
2023-03-16T11:44:36.056Z,13.30
2023-03-16T11:49:44.558Z,13.40
2023-03-16T11:54:59.311Z,13.60
2023-03-16T12:00:25.687Z,13.70
2023-03-16T12:05:48.687Z,13.80
2023-03-16T12:11:13.370Z,14.10
2023-03-16T12:16:20.096Z,14.70
2023-03-16T12:21:39.237Z,15.50
2023-03-16T12:26:43.078Z,16.10
2023-03-16T12:31:58.165Z,16.40
2023-03-16T12:37:13.098Z,16.70
2023-03-16T12:42:36.308Z,17.00
2023-03-16T12:47:52.474Z,17.40
2023-03-16T12:52:54.455Z,17.70
2023-03-16T12:58:02.106Z,17.90
2023-03-16T13:03:05.776Z,18.20
2023-03-16T13:08:15.981Z,18.70
2023-03-16T13:13:18.459Z,19.00
2023-03-16T13:18:22.994Z,19.30
2023-03-16T13:23:49.687Z,19.40
2023-03-16T13:28:52.819Z,19.70
2023-03-16T13:33:56.954Z,19.90
2023-03-16T13:39:16.325Z,20.10
2023-03-16T13:44:18.805Z,20.20
2023-03-16T13:49:20.863Z,19.90
2023-03-16T13:54:28.048Z,20.00
2023-03-16T13:59:30.297Z,19.90
2023-03-16T14:04:33.956Z,19.80
2023-03-16T14:09:36.160Z,19.80
2023-03-16T14:14:39.525Z,19.90
2023-03-16T14:19:45.910Z,20.20
2023-03-16T14:24:54.056Z,20.30
2023-03-16T14:30:01.622Z,20.70
2023-03-16T14:35:13.772Z,20.80
2023-03-16T14:40:30.836Z,20.80
2023-03-16T14:45:34.928Z,20.90
2023-03-16T14:50:37.333Z,20.70
2023-03-16T14:55:39.582Z,20.60
2023-03-16T15:00:52.641Z,20.50
2023-03-16T15:05:55.956Z,20.60
2023-03-16T15:11:01.003Z,20.50
2023-03-16T15:16:04.576Z,20.20
2023-03-16T15:21:12.884Z,20.00
2023-03-16T15:26:25.087Z,19.90
2023-03-16T15:31:27.326Z,19.70
2023-03-16T15:36:29.179Z,19.10
2023-03-16T15:41:41.405Z,18.60
2023-03-16T15:46:48.966Z,18.40
2023-03-16T15:51:50.909Z,18.10
2023-03-16T15:56:54.792Z,17.70
2023-03-16T16:01:56.861Z,17.40
2023-03-16T16:07:00.158Z,17.10
2023-03-16T16:12:02.062Z,16.90
2023-03-16T16:17:05.744Z,16.60
2023-03-16T16:22:13.805Z,16.40
2023-03-16T16:27:15.808Z,16.30
2023-03-16T16:32:24.210Z,16.30
2023-03-16T16:37:26.097Z,16.30
2023-03-16T16:42:28.040Z,16.30
2023-03-16T16:47:30.156Z,16.30
2023-03-16T16:52:32.344Z,16.20
2023-03-16T16:57:34.229Z,16.10
2023-03-16T17:02:47.958Z,15.90
2023-03-16T17:07:50.220Z,15.70
2023-03-16T17:12:53.582Z,15.50
2023-03-16T17:18:05.070Z,15.30
2023-03-16T17:23:23.748Z,15.10
2023-03-16T17:28:26.938Z,14.90
2023-03-16T17:33:29.231Z,14.70
2023-03-16T17:38:32.733Z,14.50
2023-03-16T17:43:34.542Z,14.40
2023-03-16T17:48:36.487Z,14.20
2023-03-16T17:53:38.318Z,14.00
2023-03-16T17:58:40.472Z,13.80
2023-03-16T18:03:44.434Z,13.70
2023-03-16T18:08:48.556Z,13.50
2023-03-16T18:13:51.278Z,13.40
2023-03-16T18:18:57.720Z,13.30
2023-03-16T18:23:59.606Z,13.20
2023-03-16T18:29:03.588Z,13.00
2023-03-16T18:34:06.474Z,12.90
2023-03-16T18:39:26.432Z,12.80
